Time;durP1;ratioP1;P1;durP2;ratioP2;P2;SDS_P1;SDS_P2;PMS_P1;PMS_P2;Temp;Humidity;BMP_temperature;BMP_pressure;BME280_temperature;BME280_humidity;BME280_pressure;Samples;Min_cycle;Max_cycle;Signal;HPM_P1;HPM_P2
2022/01/01 00:01:26;;;;;;;11.87;10.80;;;;;;;12.09;92.60;101229.81;5062712;28;20258;-78
2022/01/01 00:03:53;;;;;;;13.13;10.00;;;;;;;12.10;93.29;101236.75;5062200;28;20258;-79
2022/01/01 00:06:19;;;;;;;11.13;10.23;;;;;;;12.04;92.96;101242.06;5060731;28;20213;-79
2022/01/01 00:08:46;;;;;;;11.80;10.70;;;;;;;12.08;93.50;101227.22;5060953;28;20219;-78
2022/01/01 00:11:13;;;;;;;11.77;10.67;;;;;;;12.08;92.88;101235.06;5059962;28;20227;-78
2022/01/01 00:13:40;;;;;;;13.00;11.80;;;;;;;12.03;93.38;101237.75;5062469;28;20268;-78
2022/01/01 00:16:09;;;;;;;22.83;11.97;;;;;;;12.01;93.60;101234.28;5064604;28;20663;-79
2022/01/01 00:18:36;;;;;;;14.23;12.00;;;;;;;12.04;93.28;101230.75;5063257;28;20216;-79
2022/01/01 00:21:02;;;;;;;12.93;11.73;;;;;;;12.06;93.29;101229.84;5061865;28;20263;-79
2022/01/01 00:23:28;;;;;;;12.37;11.27;;;;;;;12.11;93.07;101237.66;5059932;28;20277;-78
2022/01/01 00:25:55;;;;;;;13.77;12.43;;;;;;;12.12;93.01;101234.13;5060710;28;20201;-79
2022/01/01 00:28:22;;;;;;;13.07;11.73;;;;;;;12.12;93.04;101244.59;5060166;28;20200;-78
2022/01/01 00:30:49;;;;;;;13.53;12.40;;;;;;;12.13;93.06;101246.34;5062533;28;20846;-79
2022/01/01 00:33:15;;;;;;;13.03;11.93;;;;;;;12.12;92.88;101245.47;5060603;28;20225;-79
2022/01/01 00:35:42;;;;;;;13.03;11.83;;;;;;;12.15;92.52;101255.03;5062001;28;21050;-79
2022/01/01 00:38:08;;;;;;;13.43;12.23;;;;;;;12.12;92.41;101262.94;5060827;28;20261;-79
2022/01/01 00:40:34;;;;;;;13.77;12.67;;;;;;;12.11;92.47;101266.44;5060123;28;21465;-80
2022/01/01 00:43:01;;;;;;;15.37;13.73;;;;;;;12.12;92.95;101265.53;5061128;28;20217;-79
2022/01/01 00:45:29;;;;;;;13.43;12.20;;;;;;;12.07;92.89;101268.22;5061380;28;20301;-79
2022/01/01 00:47:55;;;;;;;14.97;13.67;;;;;;;12.08;93.31;101259.47;5061482;28;20205;-79
2022/01/01 00:50:22;;;;;;;16.67;13.37;;;;;;;12.07;93.06;101256.88;5062120;28;20205;-78
2022/01/01 00:52:50;;;;;;;17.13;12.93;;;;;;;12.09;92.83;101262.94;5062209;28;20773;-79
2022/01/01 00:55:16;;;;;;;14.20;12.90;;;;;;;12.05;92.84;101249.06;5060253;28;20224;-79
2022/01/01 00:57:43;;;;;;;15.97;13.30;;;;;;;12.03;92.86;101244.69;5062347;28;20201;-79
2022/01/01 01:00:10;;;;;;;14.07;12.73;;;;;;;12.03;93.11;101245.59;5060978;28;20233;-79
2022/01/01 01:02:38;;;;;;;15.43;13.90;;;;;;;12.00;93.20;101245.63;5061016;28;20197;-79
2022/01/01 01:05:05;;;;;;;15.03;13.73;;;;;;;12.01;93.24;101239.50;5062110;28;20200;-79
2022/01/01 01:07:31;;;;;;;16.63;14.97;;;;;;;11.95;93.86;101239.56;5063367;28;20203;-79
2022/01/01 01:09:58;;;;;;;14.90;13.50;;;;;;;11.98;93.70;101238.69;5062238;28;20244;-79
2022/01/01 01:12:27;;;;;;;15.27;13.77;;;;;;;11.96;93.51;101233.47;5064108;28;20198;-80
2022/01/01 01:14:54;;;;;;;15.77;14.23;;;;;;;11.96;93.68;101229.97;5061733;28;20638;-79
2022/01/01 01:17:21;;;;;;;17.13;15.50;;;;;;;12.01;93.72;101236.00;5062731;28;20208;-80
2022/01/01 01:19:49;;;;;;;17.23;15.50;;;;;;;11.96;94.04;101230.84;5063293;28;20205;-79
2022/01/01 01:22:15;;;;;;;16.73;15.17;;;;;;;11.92;94.37;101232.63;5061735;28;20193;-79
2022/01/01 01:24:42;;;;;;;16.07;14.47;;;;;;;11.83;94.93;101219.63;5062744;28;20221;-80
2022/01/01 01:27:09;;;;;;;18.47;16.67;;;;;;;11.87;94.86;101220.44;5062166;28;20205;-79
2022/01/01 01:29:38;;;;;;;16.63;15.17;;;;;;;11.90;94.47;101218.69;5060746;28;20690;-79
2022/01/01 01:32:05;;;;;;;17.63;15.93;;;;;;;11.91;94.39;101240.47;5062036;28;20204;-79
2022/01/01 01:34:31;;;;;;;16.97;15.20;;;;;;;11.89;94.43;101245.75;5063168;28;20229;-79
2022/01/01 01:36:59;;;;;;;16.97;15.43;;;;;;;11.91;94.32;101246.59;5061932;28;20200;-79
2022/01/01 01:39:25;;;;;;;17.40;15.80;;;;;;;11.95;94.24;101251.78;5066566;28;20266;-79
2022/01/01 01:41:52;;;;;;;16.33;14.80;;;;;;;11.87;94.43;101246.59;5064855;28;20206;-79
2022/01/01 01:44:29;;;;;;;17.03;15.33;;;;;;;11.87;94.43;101237.03;5067673;28;20228;-79
2022/01/01 01:46:55;;;;;;;17.90;16.07;;;;;;;11.81;94.85;101225.75;5064797;28;20250;-79
2022/01/01 01:49:21;;;;;;;16.70;15.27;;;;;;;11.80;94.89;101216.19;5085080;22;21021;-81
2022/01/01 01:51:49;;;;;;;17.23;15.47;;;;;;;11.88;94.75;101225.66;5125303;27;20201;-82
2022/01/01 01:54:17;;;;;;;18.53;16.70;;;;;;;11.95;94.24;101231.72;5124323;27;20237;-82
2022/01/01 01:56:45;;;;;;;18.80;17.03;;;;;;;11.92;94.45;101235.25;5129512;27;20212;-82
2022/01/01 01:59:12;;;;;;;19.83;16.10;;;;;;;12.00;94.41;101244.75;5131543;27;20195;-82
2022/01/01 02:01:38;;;;;;;17.73;15.93;;;;;;;11.98;94.17;101239.53;5121162;28;20240;-83
2022/01/01 02:04:05;;;;;;;17.67;15.90;;;;;;;12.01;93.90;101249.09;5121175;28;20207;-82
2022/01/01 02:06:31;;;;;;;17.60;15.80;;;;;;;12.04;93.38;101254.31;5119546;28;20199;-82
2022/01/01 02:08:58;;;;;;;16.57;14.83;;;;;;;11.97;93.43;101258.75;5120975;28;20331;-82
2022/01/01 02:11:27;;;;;;;16.73;15.20;;;;;;;11.99;93.77;101253.47;5105753;28;20194;-81
2022/01/01 02:14:12;;;;;;;16.47;15.07;;;;;;;11.97;93.36;101263.09;5120562;28;20199;-82
2022/01/01 02:16:54;;;;;;;18.13;16.47;;;;;;;11.95;93.42;101260.50;5120799;28;20243;-82
2022/01/01 02:19:25;;;;;;;17.77;16.00;;;;;;;12.02;93.35;101259.53;5119911;28;20226;-82
2022/01/01 02:21:56;;;;;;;17.60;15.97;;;;;;;12.03;93.49;101277.00;5120188;28;20204;-82
2022/01/01 02:24:23;;;;;;;18.10;16.30;;;;;;;12.11;93.25;101280.38;5120489;28;20291;-82
2022/01/01 02:26:49;;;;;;;19.17;16.87;;;;;;;12.12;93.31;101296.94;5118440;28;20575;-82
2022/01/01 02:29:16;;;;;;;18.27;16.77;;;;;;;12.06;93.34;101291.78;5120623;28;20224;-82
2022/01/01 02:31:42;;;;;;;20.33;18.40;;;;;;;12.01;93.73;101280.50;5119999;28;20203;-82
2022/01/01 02:34:10;;;;;;;20.17;18.27;;;;;;;11.99;94.44;101264.84;5120321;28;20199;-82
2022/01/01 02:36:39;;;;;;;20.57;18.53;;;;;;;11.97;94.55;101261.38;5119776;28;20209;-82
2022/01/01 02:39:15;;;;;;;19.60;17.20;;;;;;;11.92;94.75;101264.03;5120568;28;20207;-82
2022/01/01 02:41:42;;;;;;;24.57;18.43;;;;;;;11.99;94.48;101267.44;5120382;28;20207;-82
2022/01/01 02:44:08;;;;;;;19.13;17.37;;;;;;;11.92;94.84;101263.16;5118170;28;20253;-82
2022/01/01 02:46:35;;;;;;;20.83;18.70;;;;;;;11.93;95.17;101257.03;5120181;28;20301;-82
2022/01/01 02:49:02;;;;;;;20.30;17.63;;;;;;;11.95;95.31;101259.63;5119171;28;20225;-82
2022/01/01 02:51:28;;;;;;;18.80;16.90;;;;;;;11.95;94.82;101260.50;5119194;28;20662;-81
2022/01/01 02:53:55;;;;;;;18.53;16.70;;;;;;;11.95;94.40;101267.47;5119990;28;20275;-82
2022/01/01 02:56:23;;;;;;;18.07;16.37;;;;;;;11.92;94.76;101266.63;5101300;28;20271;-82
2022/01/01 02:58:50;;;;;;;19.63;17.93;;;;;;;11.96;94.80;101257.00;5099557;28;20226;-82
2022/01/01 03:01:16;;;;;;;21.97;17.40;;;;;;;12.03;94.13;101253.44;5100117;28;20230;-82
2022/01/01 03:03:43;;;;;;;19.77;17.67;;;;;;;12.06;94.15;101276.09;5098587;28;20221;-82
2022/01/01 03:06:09;;;;;;;22.80;16.60;;;;;;;11.98;94.16;101273.56;5114778;28;20741;-82
2022/01/01 03:08:36;;;;;;;19.63;17.67;;;;;;;12.04;94.10;101283.09;5119580;28;20200;-82
2022/01/01 03:11:03;;;;;;;19.20;17.13;;;;;;;12.04;93.69;101294.41;5117994;28;20216;-82
2022/01/01 03:13:31;;;;;;;22.03;17.87;;;;;;;12.00;94.09;101284.88;5120032;28;20286;-82
2022/01/01 03:15:57;;;;;;;19.47;17.67;;;;;;;12.00;94.28;101294.47;5120063;28;20269;-82
2022/01/01 03:18:23;;;;;;;19.13;17.17;;;;;;;12.00;94.17;101284.00;5119127;28;20199;-82
2022/01/01 03:20:50;;;;;;;17.73;16.07;;;;;;;12.00;94.41;101294.47;5118260;28;20226;-82
2022/01/01 03:23:16;;;;;;;21.77;16.27;;;;;;;11.96;94.48;101283.16;5118909;28;20680;-82
2022/01/01 03:25:42;;;;;;;19.00;16.97;;;;;;;11.90;94.53;101281.47;5119480;28;20203;-82
2022/01/01 03:28:09;;;;;;;17.73;15.93;;;;;;;11.95;94.40;101285.78;5117535;28;20250;-82
2022/01/01 03:30:37;;;;;;;17.33;15.17;;;;;;;11.99;94.04;101279.66;5118763;28;20301;-82
2022/01/01 03:33:03;;;;;;;17.87;15.43;;;;;;;12.01;94.45;101293.56;5118889;28;20218;-82
2022/01/01 03:35:29;;;;;;;20.93;16.70;;;;;;;11.93;94.40;101288.41;5118573;28;20276;-81
2022/01/01 03:37:56;;;;;;;18.50;16.63;;;;;;;11.90;94.65;101276.25;5119288;28;20274;-81
2022/01/01 03:40:22;;;;;;;19.97;17.87;;;;;;;11.88;94.61;101277.13;5119264;28;20223;-81
2022/01/01 03:42:49;;;;;;;20.63;17.87;;;;;;;11.85;95.00;101262.34;5118460;28;20225;-81
2022/01/01 03:45:15;;;;;;;20.27;18.30;;;;;;;11.96;94.54;101270.09;5118605;28;20217;-83
2022/01/01 03:47:43;;;;;;;20.77;17.77;;;;;;;11.97;94.61;101278.78;5118018;28;20202;-82
2022/01/01 03:50:10;;;;;;;22.73;16.30;;;;;;;11.99;94.65;101277.03;5116032;28;20276;-82
2022/01/01 03:52:41;;;;;;;17.17;15.47;;;;;;;12.00;94.25;101287.47;5118569;28;20203;-82
2022/01/01 03:55:08;;;;;;;19.83;16.20;;;;;;;11.86;94.48;101277.13;5118954;28;20211;-81
2022/01/01 03:57:35;;;;;;;18.37;15.93;;;;;;;11.93;94.77;101272.72;5117161;28;20558;-81
2022/01/01 04:00:01;;;;;;;20.77;16.27;;;;;;;11.92;94.74;101282.34;5117519;28;20227;-81
2022/01/01 04:02:28;;;;;;;17.50;15.73;;;;;;;11.95;94.40;101276.19;5115509;28;20248;-81
2022/01/01 04:04:55;;;;;;;23.53;16.17;;;;;;;11.90;94.64;101283.25;5118104;28;20268;-81
2022/01/01 04:07:22;;;;;;;17.77;16.17;;;;;;;11.88;94.67;101270.13;5116937;28;20199;-81
2022/01/01 04:09:48;;;;;;;20.77;17.60;;;;;;;11.98;95.06;101268.31;5116808;28;20766;-81
2022/01/01 04:12:14;;;;;;;22.40;16.47;;;;;;;11.94;94.49;101271.00;5116737;28;20594;-81
2022/01/01 04:14:42;;;;;;;17.83;16.10;;;;;;;11.99;94.43;101272.69;5116631;28;20242;-81
2022/01/01 04:17:09;;;;;;;18.50;15.50;;;;;;;11.97;94.57;101273.56;5110651;28;20196;-81
2022/01/01 04:19:39;;;;;;;17.60;15.90;;;;;;;11.97;94.42;101282.31;5096307;28;20259;-80
2022/01/01 04:22:08;;;;;;;17.97;16.37;;;;;;;12.02;94.29;101288.34;5096268;28;20299;-81
2022/01/01 04:24:36;;;;;;;18.70;16.80;;;;;;;11.99;94.59;101272.69;5096797;28;20234;-81
2022/01/01 04:27:03;;;;;;;17.37;15.23;;;;;;;11.97;94.60;101273.56;5096289;28;20217;-81
2022/01/01 04:29:29;;;;;;;16.43;14.80;;;;;;;11.96;93.90;101283.16;5096568;28;20227;-81
2022/01/01 04:31:56;;;;;;;17.23;14.20;;;;;;;12.01;93.68;101290.97;5097614;28;20204;-81
2022/01/01 04:34:23;;;;;;;22.53;14.63;;;;;;;12.01;93.16;101309.28;5097587;28;20648;-81
2022/01/01 04:36:58;;;;;;;16.60;14.43;;;;;;;12.03;93.16;101310.13;5116057;28;20285;-82
2022/01/01 04:39:26;;;;;;;16.37;14.63;;;;;;;11.97;93.57;101308.47;5116444;28;20262;-81
2022/01/01 04:41:52;;;;;;;15.57;13.83;;;;;;;11.89;93.69;101291.97;5116955;28;20206;-81
2022/01/01 04:44:19;;;;;;;16.53;15.00;;;;;;;11.80;94.08;101298.13;5116734;28;20776;-81
2022/01/01 04:46:45;;;;;;;22.50;16.50;;;;;;;11.73;94.94;101273.78;5116705;28;20230;-82
2022/01/01 04:49:12;;;;;;;25.90;17.50;;;;;;;11.72;95.06;101266.81;5115666;28;20232;-81
2022/01/01 04:51:38;;;;;;;19.77;17.80;;;;;;;11.64;95.34;101267.78;5096238;28;20655;-81
2022/01/01 04:54:12;;;;;;;20.97;17.57;;;;;;;11.60;95.81;101261.72;5096862;28;20233;-81
2022/01/01 04:56:43;;;;;;;20.57;15.67;;;;;;;11.55;95.63;101266.13;5095552;28;20227;-81
2022/01/01 04:59:10;;;;;;;20.73;15.90;;;;;;;11.56;95.73;101259.16;5095949;28;20707;-81
2022/01/01 05:01:36;;;;;;;20.10;16.30;;;;;;;11.55;95.87;101268.72;5096034;28;20265;-81
2022/01/01 05:04:02;;;;;;;17.80;16.00;;;;;;;11.60;95.40;101271.31;5096826;28;20259;-81
2022/01/01 05:06:29;;;;;;;18.37;16.23;;;;;;;11.55;95.73;101276.56;5115158;28;20203;-81
2022/01/01 05:08:55;;;;;;;22.70;14.87;;;;;;;11.63;95.37;101266.91;5114844;28;20202;-82
2022/01/01 05:11:21;;;;;;;17.37;14.60;;;;;;;11.63;95.70;101279.97;5115613;28;20252;-81
2022/01/01 05:13:49;;;;;;;19.53;15.93;;;;;;;11.57;95.27;101276.56;5118378;28;20683;-81
2022/01/01 05:16:18;;;;;;;16.10;14.43;;;;;;;11.61;95.08;101283.50;5121054;28;20223;-82
2022/01/01 05:18:44;;;;;;;17.57;14.30;;;;;;;11.60;95.31;101287.00;5120820;28;20216;-81
2022/01/01 05:21:11;;;;;;;18.17;15.40;;;;;;;11.61;94.96;101296.56;5120544;28;20223;-81
2022/01/01 05:23:37;;;;;;;16.60;14.93;;;;;;;11.68;95.12;101299.13;5120217;28;20203;-81
2022/01/01 05:26:04;;;;;;;17.00;15.27;;;;;;;11.62;94.67;101309.63;5104801;28;20196;-81
2022/01/01 05:28:30;;;;;;;30.43;16.13;;;;;;;11.56;95.34;101301.84;5100280;28;20256;-81
2022/01/01 05:30:58;;;;;;;20.00;14.47;;;;;;;11.53;95.47;101294.03;5100380;28;20227;-81
2022/01/01 05:33:24;;;;;;;19.73;15.20;;;;;;;11.44;95.88;101294.97;5099997;28;20264;-81
2022/01/01 05:35:51;;;;;;;19.77;16.27;;;;;;;11.46;95.99;101274.91;5099965;28;20256;-81
2022/01/01 05:38:18;;;;;;;20.20;14.50;;;;;;;11.53;95.95;101283.56;5100380;28;20586;-81
2022/01/01 05:40:44;;;;;;;19.00;16.27;;;;;;;11.56;95.42;101283.56;5110861;28;20238;-81
2022/01/01 05:43:13;;;;;;;15.77;14.37;;;;;;;11.61;95.47;101291.34;5117268;28;20559;-81
2022/01/01 05:45:41;;;;;;;16.93;15.33;;;;;;;11.67;95.56;101289.56;5120062;28;20673;-81
2022/01/01 05:48:09;;;;;;;17.87;15.93;;;;;;;11.61;95.24;101301.81;5120267;28;20202;-81
2022/01/01 05:50:35;;;;;;;25.17;17.10;;;;;;;11.59;95.34;101293.97;5119926;28;20238;-81
2022/01/01 05:53:02;;;;;;;18.97;16.93;;;;;;;11.66;95.51;101303.50;5120267;28;20210;-81
2022/01/01 05:55:28;;;;;;;20.27;17.50;;;;;;;11.65;95.18;101301.75;5120508;28;20227;-82
2022/01/01 05:57:54;;;;;;;23.70;17.63;;;;;;;11.70;94.98;101315.66;5120363;28;20210;-81
2022/01/01 06:00:21;;;;;;;20.67;18.53;;;;;;;11.71;95.34;101312.19;5118073;28;20245;-81
2022/01/01 06:02:47;;;;;;;22.07;19.87;;;;;;;11.77;95.16;101315.59;5119622;28;20255;-81
2022/01/01 06:05:15;;;;;;;25.33;21.37;;;;;;;11.71;94.83;101320.03;5119570;28;20204;-82
2022/01/01 06:07:41;;;;;;;30.40;22.50;;;;;;;11.71;95.18;101320.03;5120352;28;20207;-81
2022/01/01 06:10:08;;;;;;;35.87;23.83;;;;;;;11.67;95.12;101318.31;5119909;28;20950;-81
2022/01/01 06:12:38;;;;;;;26.20;23.37;;;;;;;11.71;94.91;101317.41;5119785;28;20263;-81
2022/01/01 06:15:05;;;;;;;35.37;24.00;;;;;;;11.67;95.11;101310.47;5119623;28;20233;-81
2022/01/01 06:17:31;;;;;;;38.63;25.40;;;;;;;11.70;95.25;101312.19;5114348;28;20693;-81
2022/01/01 06:19:58;;;;;;;38.03;23.63;;;;;;;11.60;95.81;101311.41;5099268;28;20249;-81
2022/01/01 06:22:25;;;;;;;39.50;25.50;;;;;;;11.60;95.95;101315.78;5116249;28;20207;-81
2022/01/01 06:24:52;;;;;;;32.93;23.73;;;;;;;11.62;95.80;101312.25;5120079;28;20263;-81
2022/01/01 06:27:18;;;;;;;32.80;24.10;;;;;;;11.66;95.74;101320.94;5120123;28;20224;-81
2022/01/01 06:29:45;;;;;;;36.17;23.33;;;;;;;11.64;95.62;101325.31;5120780;28;20276;-80
2022/01/01 06:32:12;;;;;;;34.43;23.73;;;;;;;11.65;95.71;101320.06;5110693;28;20207;-81
2022/01/01 06:34:38;;;;;;;35.67;23.83;;;;;;;11.58;96.13;101322.78;5100742;28;20210;-83
2022/01/01 06:37:05;;;;;;;39.10;24.70;;;;;;;11.56;96.19;101314.94;5100416;28;20232;-81
2022/01/01 06:39:32;;;;;;;25.80;21.40;;;;;;;11.60;96.37;101315.78;5099997;28;20234;-82
2022/01/01 06:41:59;;;;;;;30.20;24.03;;;;;;;11.58;95.96;101309.69;5103348;28;20208;-82
2022/01/01 06:44:25;;;;;;;34.47;23.87;;;;;;;11.58;96.00;101320.16;5120166;28;20202;-82
2022/01/01 06:46:53;;;;;;;32.87;23.93;;;;;;;11.62;95.79;101327.94;5119156;28;20191;-81
2022/01/01 06:49:19;;;;;;;39.13;24.70;;;;;;;11.54;95.92;101319.31;5118860;28;20260;-82
2022/01/01 06:51:46;;;;;;;35.93;24.63;;;;;;;11.57;96.24;101315.78;5119620;28;20630;-82
2022/01/01 06:54:12;;;;;;;32.27;23.17;;;;;;;11.59;96.02;101327.97;5119881;28;20203;-81
2022/01/01 06:56:40;;;;;;;35.17;22.83;;;;;;;11.63;95.57;101341.88;5119379;28;20219;-81
2022/01/01 06:59:06;;;;;;;36.03;23.20;;;;;;;11.65;95.68;101348.81;5119672;27;20206;-80
2022/01/01 07:01:32;;;;;;;34.33;22.33;;;;;;;11.70;95.41;101360.13;5120266;28;20206;-82
2022/01/01 07:03:59;;;;;;;28.87;22.27;;;;;;;11.66;94.96;101358.41;5119063;28;20229;-82
2022/01/01 07:06:25;;;;;;;28.47;21.83;;;;;;;11.69;95.38;101365.34;5099362;28;20203;-81
2022/01/01 07:08:51;;;;;;;35.17;21.67;;;;;;;11.72;94.81;101362.72;5099236;28;20674;-81
2022/01/01 07:11:18;;;;;;;32.93;21.83;;;;;;;11.77;95.05;101373.16;5099642;28;20220;-81
2022/01/01 07:13:45;;;;;;;29.03;21.93;;;;;;;11.83;94.64;101392.28;5116902;28;20199;-81
2022/01/01 07:16:12;;;;;;;27.50;20.43;;;;;;;11.89;94.50;101404.44;5119077;28;20693;-81
2022/01/01 07:18:38;;;;;;;31.57;21.83;;;;;;;11.90;93.93;101414.06;5119452;28;20593;-81
2022/01/01 07:21:04;;;;;;;31.00;20.83;;;;;;;11.81;93.73;101428.03;5119385;28;20227;-81
2022/01/01 07:23:30;;;;;;;29.37;20.90;;;;;;;11.86;93.76;101426.25;5123933;27;20249;-82
2022/01/01 07:25:57;;;;;;;27.73;22.07;;;;;;;11.80;93.85;101433.28;5130406;27;20195;-82
2022/01/01 07:28:23;;;;;;;31.67;22.27;;;;;;;11.79;94.29;101421.94;5129863;27;20604;-81
2022/01/01 07:30:51;;;;;;;32.63;22.70;;;;;;;11.81;93.94;101430.66;5128391;27;20280;-82
2022/01/01 07:33:17;;;;;;;27.20;23.33;;;;;;;11.82;93.77;101440.25;5130158;27;20195;-81
2022/01/01 07:35:44;;;;;;;31.57;24.47;;;;;;;11.82;93.85;101442.84;5128791;27;20199;-81
2022/01/01 07:38:10;;;;;;;39.90;24.77;;;;;;;11.86;93.42;101452.41;5127226;27;20562;-81
2022/01/01 07:40:39;;;;;;;38.13;26.23;;;;;;;11.81;93.99;101443.72;5121840;27;20565;-81
2022/01/01 07:43:10;;;;;;;33.87;25.17;;;;;;;11.84;93.90;101442.84;5124705;27;20203;-82
2022/01/01 07:45:36;;;;;;;37.07;26.13;;;;;;;11.85;93.65;101441.97;5125731;27;20214;-83
2022/01/01 07:48:05;;;;;;;35.23;26.53;;;;;;;11.84;93.46;101450.69;5129559;27;20220;-83
2022/01/01 07:50:31;;;;;;;32.93;26.07;;;;;;;11.85;93.41;101463.78;5129355;27;20226;-81
2022/01/01 07:52:58;;;;;;;32.33;25.73;;;;;;;11.89;93.11;101468.13;5121116;27;20218;-82
2022/01/01 07:55:24;;;;;;;37.17;25.90;;;;;;;11.85;93.66;101474.25;5128222;27;20191;-82
2022/01/01 07:57:51;;;;;;;35.60;24.67;;;;;;;11.84;93.11;101462.03;5122984;27;20235;-81
2022/01/01 08:00:18;;;;;;;34.27;24.57;;;;;;;11.80;93.40;101465.53;5127566;27;20252;-83
2022/01/01 08:02:47;;;;;;;43.93;25.40;;;;;;;11.88;93.23;101478.56;5127418;27;20200;-82
2022/01/01 08:05:16;;;;;;;35.80;25.53;;;;;;;11.87;92.68;101480.31;5126463;27;20217;-82
2022/01/01 08:07:44;;;;;;;33.23;25.63;;;;;;;11.88;92.66;101489.91;5123161;27;20340;-82
2022/01/01 08:10:12;;;;;;;37.10;24.63;;;;;;;11.94;93.09;101498.63;5127074;27;20223;-80
2022/01/01 08:12:40;;;;;;;32.90;23.93;;;;;;;11.87;92.84;101497.75;5124931;27;20620;-81
2022/01/01 08:15:08;;;;;;;28.70;23.17;;;;;;;11.92;92.84;101507.34;5125483;27;20206;-80
2022/01/01 08:17:35;;;;;;;39.57;24.40;;;;;;;11.94;92.43;101504.72;5120186;27;20219;-81
2022/01/01 08:20:01;;;;;;;37.83;23.77;;;;;;;11.99;92.69;101512.53;5126411;27;20235;-81
2022/01/01 08:22:29;;;;;;;23.07;20.07;;;;;;;11.96;92.18;101539.59;5126449;27;20203;-81
2022/01/01 08:24:56;;;;;;;32.93;21.23;;;;;;;12.01;92.53;101532.59;5120054;27;20208;-81
2022/01/01 08:27:22;;;;;;;27.73;20.50;;;;;;;12.03;91.52;101556.09;5127319;27;20665;-81
2022/01/01 08:29:48;;;;;;;30.20;21.70;;;;;;;11.98;91.65;101544.81;5127695;27;20814;-81
2022/01/01 08:32:15;;;;;;;28.17;22.67;;;;;;;12.05;91.97;101543.88;5127789;27;20198;-81
2022/01/01 08:34:41;;;;;;;31.40;23.23;;;;;;;12.03;92.32;101549.16;5126576;27;20213;-81
2022/01/01 08:37:08;;;;;;;33.63;23.33;;;;;;;12.09;92.09;101562.19;5125217;27;20224;-80
2022/01/01 08:39:37;;;;;;;27.27;22.60;;;;;;;12.06;91.41;101566.56;5127155;27;20218;-80
2022/01/01 08:42:05;;;;;;;30.30;22.90;;;;;;;12.11;91.37;101568.28;5123621;27;20703;-80
2022/01/01 08:44:32;;;;;;;27.03;20.87;;;;;;;12.15;91.24;101576.09;5124750;27;20668;-81
2022/01/01 08:46:58;;;;;;;25.53;21.63;;;;;;;12.15;91.16;101586.56;5126443;27;20259;-81
2022/01/01 08:49:24;;;;;;;26.00;21.17;;;;;;;12.14;90.82;101595.31;5126625;27;20720;-81
2022/01/01 08:51:51;;;;;;;33.97;20.80;;;;;;;12.12;91.16;101601.41;5122499;27;20624;-80
2022/01/01 08:54:26;;;;;;;23.47;19.47;;;;;;;12.10;91.06;101602.31;5123885;27;20612;-81
2022/01/01 08:56:53;;;;;;;24.33;19.77;;;;;;;12.07;91.54;101594.47;5124406;27;20211;-81
2022/01/01 08:59:30;;;;;;;24.87;19.40;;;;;;;12.14;91.05;101598.78;5126801;27;20248;-81
2022/01/01 09:01:57;;;;;;;28.57;19.10;;;;;;;12.15;90.83;101603.16;5122979;27;20710;-80
2022/01/01 09:04:37;;;;;;;22.43;19.77;;;;;;;12.20;90.49;101609.22;5126428;27;20206;-82
2022/01/01 09:07:04;;;;;;;22.40;20.07;;;;;;;12.28;91.09;101604.78;5124435;27;20215;-82
2022/01/01 09:09:39;;;;;;;21.90;19.40;;;;;;;12.29;90.49;101609.16;5125468;28;20227;-82
2022/01/01 09:12:22;;;;;;;21.57;17.30;;;;;;;12.35;90.22;101610.88;5120881;28;20203;-82
2022/01/01 09:14:48;;;;;;;25.93;19.57;;;;;;;12.33;90.46;101623.09;5120440;28;20229;-81
2022/01/01 09:17:15;;;;;;;21.50;19.03;;;;;;;12.26;90.14;101621.41;5127122;28;20225;-81
2022/01/01 09:23:15;;;;;;;25.83;20.20;;;;;;;12.26;91.08;101605.69;5077592;28;20290;-82
2022/01/01 09:25:41;;;;;;;26.90;19.97;;;;;;;12.28;91.22;101606.53;5122660;28;20252;-82
2022/01/01 09:28:09;;;;;;;24.43;19.43;;;;;;;12.32;90.86;101610.88;5123225;28;20664;-81
2022/01/01 09:34:17;;;;;;;22.00;19.90;;;;;;;12.31;90.78;101615.25;5057295;27;20684;-82
2022/01/01 09:37:14;;;;;;;21.37;19.13;;;;;;;12.32;91.12;101611.75;5126285;28;20219;-82
2022/01/01 09:39:40;;;;;;;23.03;19.27;;;;;;;12.34;90.22;101631.81;5126230;22;20254;-84
2022/01/01 09:42:10;;;;;;;22.23;19.80;;;;;;;12.30;90.50;101630.97;5073391;28;20209;-83
2022/01/01 09:44:40;;;;;;;23.10;20.30;;;;;;;12.29;91.07;101624.00;5077506;28;20212;-83
2022/01/01 09:47:07;;;;;;;22.80;20.37;;;;;;;12.36;90.51;101635.28;5079168;28;20235;-84
2022/01/01 09:49:34;;;;;;;23.63;20.30;;;;;;;12.35;90.16;101637.06;5071662;28;20220;-83
2022/01/01 09:52:00;;;;;;;26.17;20.87;;;;;;;12.36;90.03;101640.53;5069296;28;20201;-84
2022/01/01 09:54:30;;;;;;;21.47;19.20;;;;;;;12.43;90.37;101635.25;5070089;28;20216;-84
2022/01/01 09:56:57;;;;;;;28.23;19.80;;;;;;;12.45;90.42;101627.38;5072766;28;20281;-84
2022/01/01 09:59:23;;;;;;;21.40;17.43;;;;;;;12.37;90.01;101645.75;5070485;28;20216;-84
2022/01/01 10:01:51;;;;;;;22.67;16.47;;;;;;;12.45;90.23;101645.72;5072203;28;20258;-84
2022/01/01 10:04:19;;;;;;;19.87;17.63;;;;;;;12.57;90.53;101650.84;5069113;28;20200;-84
2022/01/01 10:07:02;;;;;;;19.63;16.00;;;;;;;12.66;90.08;101650.75;5071641;28;20296;-85
2022/01/01 10:09:31;;;;;;;16.10;14.53;;;;;;;12.82;90.47;101621.81;5061979;28;20339;-84
2022/01/01 10:11:58;;;;;;;19.37;15.37;;;;;;;12.90;90.15;101647.09;5058528;28;20635;-84
2022/01/01 10:14:34;;;;;;;17.60;15.73;;;;;;;12.84;89.05;101675.97;5059837;28;20229;-84
2022/01/01 10:17:07;;;;;;;14.43;12.93;;;;;;;12.85;88.49;101705.66;5058400;28;20221;-84
2022/01/01 10:19:34;;;;;;;15.97;12.77;;;;;;;12.87;87.55;101723.09;5060467;28;20229;-84
2022/01/01 10:22:05;;;;;;;13.47;12.07;;;;;;;12.96;87.58;101734.38;5057958;28;20206;-84
2022/01/01 10:27:42;;;;;;;15.67;11.47;;;;;;;13.01;87.49;101735.22;5057874;28;20232;-84
2022/01/01 10:27:43;;;;;;;15.00;11.40;;;;;;;13.09;87.14;101743.91;5057585;28;20212;-84
2022/01/01 10:30:17;;;;;;;11.40;10.23;;;;;;;13.15;86.38;101770.06;5058736;28;20226;-85
2022/01/01 10:33:00;;;;;;;14.23;10.33;;;;;;;13.11;86.17;101776.22;5058298;28;20202;-83
2022/01/01 10:35:26;;;;;;;13.50;10.77;;;;;;;13.07;86.18;101777.13;5059403;28;20667;-84
2022/01/01 10:37:53;;;;;;;12.90;9.43;;;;;;;13.02;85.56;101765.78;5058951;28;20225;-84
2022/01/01 10:40:25;;;;;;;16.30;9.93;;;;;;;13.00;86.36;101765.81;5058150;28;20687;-84
2022/01/01 10:42:52;;;;;;;11.83;9.57;;;;;;;13.10;86.63;101754.38;5057981;28;20224;-84
2022/01/01 10:45:29;;;;;;;12.30;8.17;;;;;;;13.21;85.74;101763.91;5058304;28;20206;-84
2022/01/01 10:48:13;;;;;;;10.53;7.97;;;;;;;13.31;86.10;101761.19;5058634;28;20319;-84
2022/01/01 10:50:42;;;;;;;11.63;7.77;;;;;;;13.48;85.95;101774.19;5057380;28;20249;-84
2022/01/01 10:53:13;;;;;;;10.80;7.63;;;;;;;13.49;83.95;101815.25;5058377;28;20216;-84
2022/01/01 10:55:44;;;;;;;10.37;7.67;;;;;;;13.63;84.66;101814.25;5058258;28;20787;-84
2022/01/01 10:58:17;;;;;;;9.80;7.43;;;;;;;13.72;83.93;101831.69;5057636;28;20252;-84
2022/01/01 11:00:44;;;;;;;8.07;7.13;;;;;;;13.50;82.66;101865.97;5059357;28;20264;-84
2022/01/01 11:03:16;;;;;;;12.70;7.40;;;;;;;13.62;83.33;101839.63;5057856;28;20236;-84
2022/01/01 11:05:44;;;;;;;8.17;6.50;;;;;;;13.72;83.14;101842.19;5058974;28;20659;-84
2022/01/01 11:08:11;;;;;;;6.97;6.23;;;;;;;13.61;81.18;101869.38;5059781;28;20209;-84
2022/01/01 11:10:39;;;;;;;9.17;5.73;;;;;;;13.43;81.65;101882.63;5059424;28;20221;-84
2022/01/01 11:13:07;;;;;;;8.63;6.47;;;;;;;13.36;82.54;101852.09;5059677;28;20217;-85
2022/01/01 11:15:34;;;;;;;7.30;6.00;;;;;;;13.37;82.62;101831.09;5059423;28;20217;-84
2022/01/01 11:18:02;;;;;;;11.77;6.63;;;;;;;13.53;82.92;101823.09;5059096;28;20226;-84
2022/01/01 11:20:33;;;;;;;16.60;12.57;;;;;;;13.61;82.99;101826.53;5060785;28;20233;-84